createdAt,value
2018-12-14T00:00:55.726Z,1.81
2018-12-14T00:06:50.769Z,1.76
2018-12-14T00:12:45.735Z,2.17
2018-12-14T00:18:40.750Z,1.9
2018-12-14T00:24:35.741Z,1.97
2018-12-14T00:30:30.744Z,2.73
2018-12-14T00:36:25.750Z,2.49
2018-12-14T00:42:20.785Z,2.89
2018-12-14T00:48:15.745Z,3.09
2018-12-14T00:54:10.744Z,2.38
2018-12-14T01:00:05.752Z,2.42
2018-12-14T01:06:00.757Z,2.1
2018-12-14T01:11:58.264Z,1.84
2018-12-14T01:17:50.765Z,1.88
2018-12-14T01:23:45.784Z,1.67
2018-12-14T01:29:40.789Z,1.49
2018-12-14T01:35:35.771Z,1.48
2018-12-14T01:41:30.785Z,1.39
2018-12-14T01:47:25.773Z,1.38
2018-12-14T01:53:20.790Z,1.29
2018-12-14T01:59:15.790Z,1.33
2018-12-14T02:05:10.803Z,1.37
2018-12-14T02:11:05.803Z,1.38
2018-12-14T02:17:00.831Z,1.18
2018-12-14T02:22:55.809Z,1.37
2018-12-14T02:28:50.808Z,1.12
2018-12-14T02:34:45.821Z,1.15
2018-12-14T02:40:40.804Z,1.28
2018-12-14T02:46:35.803Z,1.17
2018-12-14T02:52:30.819Z,1.03
2018-12-14T02:58:25.836Z,0.96
2018-12-14T03:04:20.801Z,1.2
2018-12-14T03:10:15.820Z,1.08
2018-12-14T03:16:10.854Z,1.14
2018-12-14T03:22:05.833Z,1.14
2018-12-14T03:28:00.823Z,1.34
2018-12-14T03:33:55.849Z,1.39
2018-12-14T03:39:50.844Z,1.58
2018-12-14T03:45:45.843Z,1.65
2018-12-14T03:51:40.855Z,1.87
2018-12-14T03:57:35.853Z,1.82
2018-12-14T04:03:30.852Z,2.11
2018-12-14T04:09:25.857Z,2.7
2018-12-14T04:15:20.850Z,2.5
2018-12-14T04:21:15.848Z,2.47
2018-12-14T04:27:10.882Z,2.45
2018-12-14T04:33:05.860Z,2.71
2018-12-14T04:39:00.857Z,2.31
2018-12-14T04:44:55.868Z,3.07
2018-12-14T04:50:50.880Z,2.64
2018-12-14T04:56:45.874Z,2.41
2018-12-14T05:02:40.878Z,2.44
2018-12-14T05:08:35.939Z,2.67
2018-12-14T05:14:30.934Z,3.95
2018-12-14T05:20:25.896Z,3.69
2018-12-14T05:26:20.895Z,3.33
2018-12-14T05:32:15.892Z,3.43
2018-12-14T05:38:10.933Z,3.06
2018-12-14T05:44:05.984Z,2.99
2018-12-14T05:50:00.932Z,2.5
2018-12-14T05:55:55.896Z,2.68
2018-12-14T06:01:50.917Z,2.42
2018-12-14T06:07:45.913Z,3.22
2018-12-14T06:13:40.907Z,2.7
2018-12-14T06:19:35.920Z,3.03
2018-12-14T06:25:30.916Z,2.87
2018-12-14T06:31:25.923Z,3.6
2018-12-14T06:37:20.919Z,3.07
2018-12-14T06:43:15.956Z,3.81
2018-12-14T06:49:10.969Z,3.53
2018-12-14T06:55:05.946Z,2.12
2018-12-14T07:01:00.948Z,3.04
2018-12-14T07:06:55.962Z,3.51
2018-12-14T07:12:50.938Z,3.17
2018-12-14T07:18:46.007Z,2.77
2018-12-14T07:24:40.945Z,4.1
2018-12-14T07:30:35.992Z,3.75
2018-12-14T07:36:31.025Z,4.06
2018-12-14T07:42:25.950Z,4.22
2018-12-14T07:48:20.990Z,4.24
2018-12-14T07:54:15.983Z,4.42
2018-12-14T08:00:10.975Z,4.4
2018-12-14T08:06:05.969Z,4.18
2018-12-14T08:12:00.979Z,4.73
2018-12-14T08:17:55.998Z,4.85
2018-12-14T08:23:50.966Z,4.52
2018-12-14T08:29:46.018Z,5.27
2018-12-14T08:35:41.031Z,6.16
2018-12-14T08:41:36.002Z,5.14
2018-12-14T08:47:31.052Z,6.4
2018-12-14T08:53:26.015Z,5.38
2018-12-14T08:59:21.022Z,6.74
2018-12-14T09:05:16.044Z,6.84
2018-12-14T09:11:11.016Z,5.18
2018-12-14T09:17:06.035Z,4.61
2018-12-14T09:23:01.018Z,4.66
2018-12-14T09:28:56.067Z,6.2
2018-12-14T09:34:51.042Z,5.9
2018-12-14T09:40:46.015Z,5.28
2018-12-14T09:46:41.058Z,4.94
2018-12-14T09:52:36.022Z,4.98
2018-12-14T09:58:31.048Z,3.44
2018-12-14T10:04:26.042Z,4.56
2018-12-14T10:10:21.031Z,3.87
2018-12-14T10:16:16.036Z,6.14
2018-12-14T10:22:11.079Z,4.53
2018-12-14T10:28:06.062Z,5.82
2018-12-14T10:34:01.028Z,5.61
2018-12-14T10:39:56.042Z,5.49
2018-12-14T10:45:51.066Z,3.96
2018-12-14T10:51:46.042Z,5.72
2018-12-14T10:57:41.058Z,5.82
2018-12-14T11:03:36.052Z,5.36
2018-12-14T11:09:31.074Z,5.45
2018-12-14T11:15:26.083Z,4.74
2018-12-14T11:21:21.061Z,4.96
2018-12-14T11:27:16.064Z,6.12
2018-12-14T11:33:11.079Z,6.15
2018-12-14T11:39:06.063Z,6.22
2018-12-14T11:45:01.082Z,6.81
2018-12-14T11:50:56.074Z,8.87
2018-12-14T11:56:51.100Z,7.04
2018-12-14T12:02:46.104Z,7.56
2018-12-14T12:08:41.101Z,7.02
2018-12-14T12:14:36.085Z,7.99
2018-12-14T12:20:31.107Z,8.44
2018-12-14T12:26:26.124Z,7.1
2018-12-14T12:32:21.120Z,5.31
2018-12-14T12:38:16.107Z,6.02
2018-12-14T12:44:11.118Z,8.27
2018-12-14T12:50:06.130Z,6.58
2018-12-14T12:56:01.114Z,8.54
2018-12-14T13:01:56.199Z,8.47
2018-12-14T13:07:51.117Z,6.74
2018-12-14T13:13:46.145Z,7.31
2018-12-14T13:19:41.174Z,7.79
2018-12-14T13:25:36.136Z,8.15
2018-12-14T13:31:31.143Z,8.65
2018-12-14T13:37:26.132Z,7.18
2018-12-14T13:43:21.201Z,7.2
2018-12-14T13:49:16.131Z,6.66
2018-12-14T13:55:11.139Z,6.82
2018-12-14T14:01:06.164Z,6.89
2018-12-14T14:07:01.149Z,7.75
2018-12-14T14:12:56.184Z,7.22
2018-12-14T14:18:51.169Z,7.16
2018-12-14T14:24:46.152Z,9.46
2018-12-14T14:30:41.158Z,7.8
2018-12-14T14:36:36.153Z,6.49
2018-12-14T14:42:31.199Z,6.83
2018-12-14T14:48:26.167Z,6.84
2018-12-14T14:54:21.171Z,9.7
2018-12-14T15:00:16.169Z,7.13
2018-12-14T15:06:11.186Z,7.21
2018-12-14T15:12:06.169Z,7.75
2018-12-14T15:18:01.177Z,6.89
2018-12-14T15:23:56.188Z,8.48
2018-12-14T15:29:51.220Z,7.47
2018-12-14T15:35:46.222Z,8.07
2018-12-14T15:41:41.215Z,6.9
2018-12-14T15:47:36.225Z,8.86
2018-12-14T15:53:31.204Z,8.53
2018-12-14T15:59:26.200Z,7.77
2018-12-14T16:05:21.223Z,7.11
2018-12-14T16:11:16.263Z,9.54
2018-12-14T16:17:11.269Z,8.85
2018-12-14T16:23:06.240Z,7.92
2018-12-14T16:29:01.227Z,9.33
2018-12-14T16:34:56.231Z,6.94
2018-12-14T16:40:51.236Z,7.8
2018-12-14T16:46:46.252Z,7.6
2018-12-14T16:52:41.247Z,9.07
2018-12-14T16:58:36.230Z,8.75
2018-12-14T17:04:31.239Z,7.92
2018-12-14T17:10:26.240Z,8.72
2018-12-14T17:16:21.248Z,7.56
2018-12-14T17:22:16.252Z,10.12
2018-12-14T17:28:11.256Z,9.65
2018-12-14T17:34:06.267Z,7.57
2018-12-14T17:40:01.257Z,7.77
2018-12-14T17:45:56.298Z,6.44
2018-12-14T17:51:51.248Z,9.11
2018-12-14T17:57:46.272Z,7.97
2018-12-14T18:03:41.298Z,7.25
2018-12-14T18:09:36.269Z,8.84
2018-12-14T18:15:31.275Z,7.81
2018-12-14T18:21:26.319Z,9.53
2018-12-14T18:27:21.279Z,8.6
2018-12-14T18:33:16.324Z,7.38
2018-12-14T18:39:11.338Z,4.96
2018-12-14T18:45:06.320Z,6.03
2018-12-14T18:51:01.295Z,5.78
2018-12-14T18:56:56.315Z,6.78
2018-12-14T19:02:51.312Z,5.47
2018-12-14T19:08:46.335Z,5.99
2018-12-14T19:14:41.372Z,5.62
2018-12-14T19:20:36.330Z,5.39
2018-12-14T19:26:31.324Z,5.48
2018-12-14T19:32:26.302Z,5.7
2018-12-14T19:38:21.342Z,5.42
2018-12-14T19:44:16.331Z,6.04
2018-12-14T19:50:11.325Z,5.21
2018-12-14T19:56:06.376Z,4.82
2018-12-14T20:02:01.332Z,6
2018-12-14T20:07:56.403Z,5.2
2018-12-14T20:13:51.334Z,5.99
2018-12-14T20:19:46.350Z,5.01
2018-12-14T20:25:41.345Z,5.27
2018-12-14T20:31:36.370Z,5.07
2018-12-14T20:37:31.344Z,5.29
2018-12-14T20:43:26.362Z,4.94
2018-12-14T20:49:21.359Z,5.39
2018-12-14T20:55:16.396Z,4.67
2018-12-14T21:01:11.383Z,5.6
2018-12-14T21:07:06.390Z,4.86
2018-12-14T21:13:01.366Z,3.99
2018-12-14T21:18:56.382Z,5
2018-12-14T21:24:51.372Z,4.69
2018-12-14T21:30:46.375Z,4.37
2018-12-14T21:36:41.423Z,4.41
2018-12-14T21:42:36.378Z,4.04
2018-12-14T21:48:31.407Z,5.15
2018-12-14T21:54:26.392Z,4.64
2018-12-14T22:00:21.411Z,5.83
2018-12-14T22:06:16.399Z,4.57
2018-12-14T22:12:11.399Z,4.98
2018-12-14T22:18:06.400Z,5.42
2018-12-14T22:24:01.402Z,4.83
2018-12-14T22:29:56.481Z,5.1
2018-12-14T22:35:51.413Z,4.62
2018-12-14T22:41:46.477Z,5.73
2018-12-14T22:47:41.435Z,5.38
2018-12-14T22:53:36.473Z,6.16
2018-12-14T22:59:31.441Z,6.39
2018-12-14T23:05:26.425Z,6.32
2018-12-14T23:11:21.701Z,6.13
2018-12-14T23:17:16.441Z,6.37
2018-12-14T23:23:11.445Z,6.94
2018-12-14T23:29:06.448Z,7.13
2018-12-14T23:35:01.445Z,7.62
2018-12-14T23:40:56.425Z,7.99
2018-12-14T23:46:51.462Z,7.95
2018-12-14T23:52:46.474Z,8.39
2018-12-14T23:58:41.456Z,7.06
